sensor_id;sensor_type;location;lat;lon;timestamp;temperature;humidity
18998;DHT22;9632;51.018;4.284;2022-09-03T00:02:18;21.90;90.80
18998;DHT22;9632;51.018;4.284;2022-09-03T00:05:11;21.90;91.30
18998;DHT22;9632;51.018;4.284;2022-09-03T00:08:19;21.90;90.70
18998;DHT22;9632;51.018;4.284;2022-09-03T00:10:58;21.80;90.30
18998;DHT22;9632;51.018;4.284;2022-09-03T00:13:32;21.70;90.40
18998;DHT22;9632;51.018;4.284;2022-09-03T00:15:59;21.70;90.50
18998;DHT22;9632;51.018;4.284;2022-09-03T00:18:30;21.60;90.90
18998;DHT22;9632;51.018;4.284;2022-09-03T00:21:03;21.60;91.20
18998;DHT22;9632;51.018;4.284;2022-09-03T00:23:34;21.60;91.30
18998;DHT22;9632;51.018;4.284;2022-09-03T00:28:56;21.60;91.50
18998;DHT22;9632;51.018;4.284;2022-09-03T00:32:25;21.60;91.40
18998;DHT22;9632;51.018;4.284;2022-09-03T00:34:40;21.60;91.10
18998;DHT22;9632;51.018;4.284;2022-09-03T00:37:09;21.60;91.00
18998;DHT22;9632;51.018;4.284;2022-09-03T00:39:36;21.60;90.90
18998;DHT22;9632;51.018;4.284;2022-09-03T00:42:43;21.60;91.10
18998;DHT22;9632;51.018;4.284;2022-09-03T00:45:27;21.50;91.20
18998;DHT22;9632;51.018;4.284;2022-09-03T00:55:57;21.50;92.00
18998;DHT22;9632;51.018;4.284;2022-09-03T00:59:31;21.50;92.20
18998;DHT22;9632;51.018;4.284;2022-09-03T01:01:24;21.60;92.10
18998;DHT22;9632;51.018;4.284;2022-09-03T01:06:42;21.50;91.20
18998;DHT22;9632;51.018;4.284;2022-09-03T01:12:00;21.50;91.40
18998;DHT22;9632;51.018;4.284;2022-09-03T01:19:46;21.50;90.90
18998;DHT22;9632;51.018;4.284;2022-09-03T01:22:25;21.50;91.10
18998;DHT22;9632;51.018;4.284;2022-09-03T01:30:16;21.50;91.70
18998;DHT22;9632;51.018;4.284;2022-09-03T01:35:48;21.50;92.20
18998;DHT22;9632;51.018;4.284;2022-09-03T01:38:26;21.50;92.50
18998;DHT22;9632;51.018;4.284;2022-09-03T01:41:12;21.50;92.60
18998;DHT22;9632;51.018;4.284;2022-09-03T01:44:41;21.50;92.70
18998;DHT22;9632;51.018;4.284;2022-09-03T01:53:44;21.40;93.30
18998;DHT22;9632;51.018;4.284;2022-09-03T01:59:22;21.40;93.60
18998;DHT22;9632;51.018;4.284;2022-09-03T02:02:10;21.40;93.70
18998;DHT22;9632;51.018;4.284;2022-09-03T02:05:00;21.40;93.90
18998;DHT22;9632;51.018;4.284;2022-09-03T02:07:31;21.30;93.90
18998;DHT22;9632;51.018;4.284;2022-09-03T02:10:02;21.30;93.80
18998;DHT22;9632;51.018;4.284;2022-09-03T02:12:32;21.40;93.50
18998;DHT22;9632;51.018;4.284;2022-09-03T02:15:13;21.30;93.70
18998;DHT22;9632;51.018;4.284;2022-09-03T02:17:40;21.30;94.10
18998;DHT22;9632;51.018;4.284;2022-09-03T02:20:09;21.30;94.40
18998;DHT22;9632;51.018;4.284;2022-09-03T02:22:37;21.30;94.50
18998;DHT22;9632;51.018;4.284;2022-09-03T02:25:04;21.30;94.60
18998;DHT22;9632;51.018;4.284;2022-09-03T02:27:30;21.30;94.60
18998;DHT22;9632;51.018;4.284;2022-09-03T02:29:57;21.30;94.60
18998;DHT22;9632;51.018;4.284;2022-09-03T02:32:23;21.30;94.90
18998;DHT22;9632;51.018;4.284;2022-09-03T02:34:49;21.30;95.10
18998;DHT22;9632;51.018;4.284;2022-09-03T02:37:17;21.20;95.10
18998;DHT22;9632;51.018;4.284;2022-09-03T02:39:43;21.20;95.10
18998;DHT22;9632;51.018;4.284;2022-09-03T02:42:11;21.20;95.20
18998;DHT22;9632;51.018;4.284;2022-09-03T02:44:45;21.20;95.30
18998;DHT22;9632;51.018;4.284;2022-09-03T02:47:12;21.30;95.50
18998;DHT22;9632;51.018;4.284;2022-09-03T02:49:39;21.20;95.60
18998;DHT22;9632;51.018;4.284;2022-09-03T02:52:08;21.20;95.60
18998;DHT22;9632;51.018;4.284;2022-09-03T02:54:38;21.20;95.70
18998;DHT22;9632;51.018;4.284;2022-09-03T02:57:08;21.20;95.90
18998;DHT22;9632;51.018;4.284;2022-09-03T02:59:35;21.20;95.90
18998;DHT22;9632;51.018;4.284;2022-09-03T03:02:01;21.20;96.10
18998;DHT22;9632;51.018;4.284;2022-09-03T03:04:29;21.10;96.30
18998;DHT22;9632;51.018;4.284;2022-09-03T03:06:55;21.10;96.30
18998;DHT22;9632;51.018;4.284;2022-09-03T03:09:20;21.10;96.20
18998;DHT22;9632;51.018;4.284;2022-09-03T03:11:46;21.10;96.20
18998;DHT22;9632;51.018;4.284;2022-09-03T03:14:16;21.10;96.30
18998;DHT22;9632;51.018;4.284;2022-09-03T03:16:42;21.10;96.50
18998;DHT22;9632;51.018;4.284;2022-09-03T03:19:07;21.10;96.60
18998;DHT22;9632;51.018;4.284;2022-09-03T03:21:33;21.00;96.70
18998;DHT22;9632;51.018;4.284;2022-09-03T03:24:00;21.00;96.70
18998;DHT22;9632;51.018;4.284;2022-09-03T03:26:27;21.00;96.80
18998;DHT22;9632;51.018;4.284;2022-09-03T03:28:56;21.00;96.90
18998;DHT22;9632;51.018;4.284;2022-09-03T03:31:23;21.00;97.00
18998;DHT22;9632;51.018;4.284;2022-09-03T03:33:51;21.00;97.20
18998;DHT22;9632;51.018;4.284;2022-09-03T03:36:17;21.00;97.30
18998;DHT22;9632;51.018;4.284;2022-09-03T03:38:44;21.00;97.40
18998;DHT22;9632;51.018;4.284;2022-09-03T03:41:21;21.00;97.50
18998;DHT22;9632;51.018;4.284;2022-09-03T03:43:52;21.00;97.60
18998;DHT22;9632;51.018;4.284;2022-09-03T03:46:19;21.00;97.70
18998;DHT22;9632;51.018;4.284;2022-09-03T03:48:47;21.00;97.80
18998;DHT22;9632;51.018;4.284;2022-09-03T03:51:12;20.90;97.80
18998;DHT22;9632;51.018;4.284;2022-09-03T03:53:38;20.90;98.00
18998;DHT22;9632;51.018;4.284;2022-09-03T03:56:06;20.80;98.10
18998;DHT22;9632;51.018;4.284;2022-09-03T03:58:34;20.80;98.20
18998;DHT22;9632;51.018;4.284;2022-09-03T04:03:34;20.80;98.20
18998;DHT22;9632;51.018;4.284;2022-09-03T04:06:00;20.70;98.20
18998;DHT22;9632;51.018;4.284;2022-09-03T04:08:27;20.70;98.30
18998;DHT22;9632;51.018;4.284;2022-09-03T04:10:53;20.70;98.60
18998;DHT22;9632;51.018;4.284;2022-09-03T04:13:23;20.70;98.40
18998;DHT22;9632;51.018;4.284;2022-09-03T04:15:48;20.70;98.30
18998;DHT22;9632;51.018;4.284;2022-09-03T04:18:14;20.70;98.50
18998;DHT22;9632;51.018;4.284;2022-09-03T04:20:40;20.60;98.50
18998;DHT22;9632;51.018;4.284;2022-09-03T04:23:05;20.60;99.00
18998;DHT22;9632;51.018;4.284;2022-09-03T04:25:31;20.60;99.30
18998;DHT22;9632;51.018;4.284;2022-09-03T04:27:57;20.70;99.50
18998;DHT22;9632;51.018;4.284;2022-09-03T04:30:23;20.70;99.60
18998;DHT22;9632;51.018;4.284;2022-09-03T04:32:49;20.60;99.50
18998;DHT22;9632;51.018;4.284;2022-09-03T04:35:21;20.60;99.20
18998;DHT22;9632;51.018;4.284;2022-09-03T04:37:47;20.60;99.10
18998;DHT22;9632;51.018;4.284;2022-09-03T04:40:14;20.60;98.90
18998;DHT22;9632;51.018;4.284;2022-09-03T04:42:39;20.60;98.80
18998;DHT22;9632;51.018;4.284;2022-09-03T04:45:05;20.60;99.30
18998;DHT22;9632;51.018;4.284;2022-09-03T04:47:31;20.60;98.70
18998;DHT22;9632;51.018;4.284;2022-09-03T04:49:57;20.60;98.30
18998;DHT22;9632;51.018;4.284;2022-09-03T04:52:23;20.60;98.40
18998;DHT22;9632;51.018;4.284;2022-09-03T04:54:49;20.60;98.70
18998;DHT22;9632;51.018;4.284;2022-09-03T04:57:15;20.60;99.70
18998;DHT22;9632;51.018;4.284;2022-09-03T04:59:40;20.50;99.90
18998;DHT22;9632;51.018;4.284;2022-09-03T05:02:07;20.60;99.90
18998;DHT22;9632;51.018;4.284;2022-09-03T05:04:34;20.60;99.90
18998;DHT22;9632;51.018;4.284;2022-09-03T05:06:59;20.50;99.90
18998;DHT22;9632;51.018;4.284;2022-09-03T05:09:25;20.50;99.90
18998;DHT22;9632;51.018;4.284;2022-09-03T05:11:51;20.50;99.90
18998;DHT22;9632;51.018;4.284;2022-09-03T05:14:16;20.50;99.90
18998;DHT22;9632;51.018;4.284;2022-09-03T05:16:42;20.50;99.90
18998;DHT22;9632;51.018;4.284;2022-09-03T05:19:08;20.40;99.90
18998;DHT22;9632;51.018;4.284;2022-09-03T05:21:34;20.40;99.90
18998;DHT22;9632;51.018;4.284;2022-09-03T05:24:01;20.40;99.90
18998;DHT22;9632;51.018;4.284;2022-09-03T05:26:29;20.40;99.90
18998;DHT22;9632;51.018;4.284;2022-09-03T05:28:57;20.40;99.90
18998;DHT22;9632;51.018;4.284;2022-09-03T05:31:26;20.30;99.90
18998;DHT22;9632;51.018;4.284;2022-09-03T05:33:57;20.40;99.90
18998;DHT22;9632;51.018;4.284;2022-09-03T05:36:26;20.40;99.90
18998;DHT22;9632;51.018;4.284;2022-09-03T05:38:52;20.40;99.90
18998;DHT22;9632;51.018;4.284;2022-09-03T05:41:22;20.40;99.90
18998;DHT22;9632;51.018;4.284;2022-09-03T05:43:52;20.30;99.90
18998;DHT22;9632;51.018;4.284;2022-09-03T05:46:28;20.30;99.90
18998;DHT22;9632;51.018;4.284;2022-09-03T05:49:01;20.30;99.90
18998;DHT22;9632;51.018;4.284;2022-09-03T05:51:28;20.30;99.90
18998;DHT22;9632;51.018;4.284;2022-09-03T05:53:54;20.30;99.90
18998;DHT22;9632;51.018;4.284;2022-09-03T05:56:22;20.30;99.90
18998;DHT22;9632;51.018;4.284;2022-09-03T05:58:50;20.30;99.90
18998;DHT22;9632;51.018;4.284;2022-09-03T06:01:25;20.20;99.90
18998;DHT22;9632;51.018;4.284;2022-09-03T06:04:02;20.20;99.90
18998;DHT22;9632;51.018;4.284;2022-09-03T06:06:30;20.20;99.90
18998;DHT22;9632;51.018;4.284;2022-09-03T06:08:58;20.20;99.90
18998;DHT22;9632;51.018;4.284;2022-09-03T06:11:25;20.20;99.90
18998;DHT22;9632;51.018;4.284;2022-09-03T06:13:53;20.20;99.90
18998;DHT22;9632;51.018;4.284;2022-09-03T06:16:21;20.10;99.90
18998;DHT22;9632;51.018;4.284;2022-09-03T06:18:47;20.10;99.90
18998;DHT22;9632;51.018;4.284;2022-09-03T06:21:13;20.10;99.90
18998;DHT22;9632;51.018;4.284;2022-09-03T06:23:40;20.20;99.90
18998;DHT22;9632;51.018;4.284;2022-09-03T06:26:13;20.20;99.90
18998;DHT22;9632;51.018;4.284;2022-09-03T06:28:42;20.20;99.90
18998;DHT22;9632;51.018;4.284;2022-09-03T06:31:13;20.20;99.90
18998;DHT22;9632;51.018;4.284;2022-09-03T06:33:40;20.20;99.90
18998;DHT22;9632;51.018;4.284;2022-09-03T06:36:09;20.30;99.90
18998;DHT22;9632;51.018;4.284;2022-09-03T06:38:38;20.30;99.90
18998;DHT22;9632;51.018;4.284;2022-09-03T06:41:16;20.40;99.90
18998;DHT22;9632;51.018;4.284;2022-09-03T06:43:57;20.40;99.90
18998;DHT22;9632;51.018;4.284;2022-09-03T06:46:28;20.50;99.90
18998;DHT22;9632;51.018;4.284;2022-09-03T06:48:55;20.60;99.90
18998;DHT22;9632;51.018;4.284;2022-09-03T06:51:25;20.60;99.90
18998;DHT22;9632;51.018;4.284;2022-09-03T06:53:53;20.70;99.90
18998;DHT22;9632;51.018;4.284;2022-09-03T06:56:22;20.70;99.90
18998;DHT22;9632;51.018;4.284;2022-09-03T06:58:52;20.80;99.90
18998;DHT22;9632;51.018;4.284;2022-09-03T07:01:20;20.80;99.90
18998;DHT22;9632;51.018;4.284;2022-09-03T07:03:53;20.80;99.90
18998;DHT22;9632;51.018;4.284;2022-09-03T07:06:40;20.90;99.90
18998;DHT22;9632;51.018;4.284;2022-09-03T07:09:07;20.90;99.90
18998;DHT22;9632;51.018;4.284;2022-09-03T07:11:35;21.00;99.90
18998;DHT22;9632;51.018;4.284;2022-09-03T07:14:02;20.90;99.90
18998;DHT22;9632;51.018;4.284;2022-09-03T07:16:34;20.90;99.90
18998;DHT22;9632;51.018;4.284;2022-09-03T07:19:01;20.90;99.90
18998;DHT22;9632;51.018;4.284;2022-09-03T07:21:30;21.00;99.90
18998;DHT22;9632;51.018;4.284;2022-09-03T07:23:56;21.00;99.90
18998;DHT22;9632;51.018;4.284;2022-09-03T07:26:29;21.10;99.90
18998;DHT22;9632;51.018;4.284;2022-09-03T07:28:55;21.10;99.90
18998;DHT22;9632;51.018;4.284;2022-09-03T07:31:27;21.20;99.90
18998;DHT22;9632;51.018;4.284;2022-09-03T07:36:22;21.20;99.90
18998;DHT22;9632;51.018;4.284;2022-09-03T07:38:49;21.20;99.90
18998;DHT22;9632;51.018;4.284;2022-09-03T07:41:16;21.30;99.90
18998;DHT22;9632;51.018;4.284;2022-09-03T07:43:45;21.30;99.90
18998;DHT22;9632;51.018;4.284;2022-09-03T07:46:19;21.30;99.90
18998;DHT22;9632;51.018;4.284;2022-09-03T07:48:51;21.30;99.90
18998;DHT22;9632;51.018;4.284;2022-09-03T07:51:20;21.40;99.90
18998;DHT22;9632;51.018;4.284;2022-09-03T07:53:48;21.40;99.90
18998;DHT22;9632;51.018;4.284;2022-09-03T07:56:16;21.40;99.90
18998;DHT22;9632;51.018;4.284;2022-09-03T07:58:42;21.40;99.90
18998;DHT22;9632;51.018;4.284;2022-09-03T08:01:10;21.40;99.90
18998;DHT22;9632;51.018;4.284;2022-09-03T08:03:38;21.50;99.90
18998;DHT22;9632;51.018;4.284;2022-09-03T08:06:05;21.60;99.90
18998;DHT22;9632;51.018;4.284;2022-09-03T08:08:33;21.60;99.90
18998;DHT22;9632;51.018;4.284;2022-09-03T08:11:14;21.70;99.90
18998;DHT22;9632;51.018;4.284;2022-09-03T08:13:54;21.70;99.90
18998;DHT22;9632;51.018;4.284;2022-09-03T08:16:22;21.80;99.90
18998;DHT22;9632;51.018;4.284;2022-09-03T08:18:47;21.70;99.90
18998;DHT22;9632;51.018;4.284;2022-09-03T08:21:18;21.80;99.90
18998;DHT22;9632;51.018;4.284;2022-09-03T08:23:46;21.80;99.90
18998;DHT22;9632;51.018;4.284;2022-09-03T08:26:13;21.80;99.90
18998;DHT22;9632;51.018;4.284;2022-09-03T08:28:39;21.90;99.90
18998;DHT22;9632;51.018;4.284;2022-09-03T08:33:40;22.10;99.90
18998;DHT22;9632;51.018;4.284;2022-09-03T08:36:15;22.20;99.90
18998;DHT22;9632;51.018;4.284;2022-09-03T08:38:44;22.30;99.90
18998;DHT22;9632;51.018;4.284;2022-09-03T08:41:16;22.40;99.90
18998;DHT22;9632;51.018;4.284;2022-09-03T08:46:08;22.60;99.90
18998;DHT22;9632;51.018;4.284;2022-09-03T08:48:34;22.60;99.90
18998;DHT22;9632;51.018;4.284;2022-09-03T08:51:01;22.70;99.90
18998;DHT22;9632;51.018;4.284;2022-09-03T08:53:32;22.70;99.90
18998;DHT22;9632;51.018;4.284;2022-09-03T08:56:11;22.80;99.90
18998;DHT22;9632;51.018;4.284;2022-09-03T08:58:38;22.80;99.90
18998;DHT22;9632;51.018;4.284;2022-09-03T09:01:42;22.90;99.90
18998;DHT22;9632;51.018;4.284;2022-09-03T09:06:54;23.30;99.90
18998;DHT22;9632;51.018;4.284;2022-09-03T09:21:17;23.60;99.90
18998;DHT22;9632;51.018;4.284;2022-09-03T09:23:48;23.60;99.90
18998;DHT22;9632;51.018;4.284;2022-09-03T09:26:17;23.40;99.90
18998;DHT22;9632;51.018;4.284;2022-09-03T09:28:46;23.40;99.90
18998;DHT22;9632;51.018;4.284;2022-09-03T09:31:14;23.60;99.90
18998;DHT22;9632;51.018;4.284;2022-09-03T09:33:43;23.80;99.90
18998;DHT22;9632;51.018;4.284;2022-09-03T09:36:11;23.90;99.90
18998;DHT22;9632;51.018;4.284;2022-09-03T09:38:40;24.00;99.90
18998;DHT22;9632;51.018;4.284;2022-09-03T09:41:18;24.00;99.90
18998;DHT22;9632;51.018;4.284;2022-09-03T09:43:44;24.10;99.90
18998;DHT22;9632;51.018;4.284;2022-09-03T09:46:13;24.10;99.90
18998;DHT22;9632;51.018;4.284;2022-09-03T09:48:48;24.20;99.90
18998;DHT22;9632;51.018;4.284;2022-09-03T09:51:32;24.40;99.90
18998;DHT22;9632;51.018;4.284;2022-09-03T09:54:11;24.50;99.90
18998;DHT22;9632;51.018;4.284;2022-09-03T09:56:37;24.50;99.90
18998;DHT22;9632;51.018;4.284;2022-09-03T09:59:08;24.70;99.90
18998;DHT22;9632;51.018;4.284;2022-09-03T10:01:40;24.70;99.90
18998;DHT22;9632;51.018;4.284;2022-09-03T10:04:12;25.00;99.90
18998;DHT22;9632;51.018;4.284;2022-09-03T10:06:40;25.20;99.90
18998;DHT22;9632;51.018;4.284;2022-09-03T10:09:25;25.40;99.90
18998;DHT22;9632;51.018;4.284;2022-09-03T10:12:16;25.60;99.90
18998;DHT22;9632;51.018;4.284;2022-09-03T10:21:16;25.80;99.90
18998;DHT22;9632;51.018;4.284;2022-09-03T10:26:29;26.00;99.90
18998;DHT22;9632;51.018;4.284;2022-09-03T10:28:57;26.10;99.90
18998;DHT22;9632;51.018;4.284;2022-09-03T10:34:37;26.40;99.90
18998;DHT22;9632;51.018;4.284;2022-09-03T10:37:32;26.40;99.90
18998;DHT22;9632;51.018;4.284;2022-09-03T10:43:12;26.50;99.90
18998;DHT22;9632;51.018;4.284;2022-09-03T10:45:56;26.40;99.90
18998;DHT22;9632;51.018;4.284;2022-09-03T10:51:26;26.40;99.90
18998;DHT22;9632;51.018;4.284;2022-09-03T10:54:18;26.50;99.90
18998;DHT22;9632;51.018;4.284;2022-09-03T11:04:48;26.70;99.90
18998;DHT22;9632;51.018;4.284;2022-09-03T11:07:20;26.80;99.90
18998;DHT22;9632;51.018;4.284;2022-09-03T11:12:37;26.80;99.90
18998;DHT22;9632;51.018;4.284;2022-09-03T11:15:08;26.70;99.90
18998;DHT22;9632;51.018;4.284;2022-09-03T11:17:45;26.70;99.90
18998;DHT22;9632;51.018;4.284;2022-09-03T11:20:21;26.70;99.90
18998;DHT22;9632;51.018;4.284;2022-09-03T11:22:49;26.70;99.90
18998;DHT22;9632;51.018;4.284;2022-09-03T11:25:18;26.80;99.90
18998;DHT22;9632;51.018;4.284;2022-09-03T11:27:59;26.90;99.90
18998;DHT22;9632;51.018;4.284;2022-09-03T11:33:11;27.00;99.90
18998;DHT22;9632;51.018;4.284;2022-09-03T11:35:41;27.00;99.90
18998;DHT22;9632;51.018;4.284;2022-09-03T11:41:10;27.10;99.90
18998;DHT22;9632;51.018;4.284;2022-09-03T11:43:41;27.10;99.90
18998;DHT22;9632;51.018;4.284;2022-09-03T11:46:28;27.10;99.90
18998;DHT22;9632;51.018;4.284;2022-09-03T11:49:12;27.00;99.90
18998;DHT22;9632;51.018;4.284;2022-09-03T11:52:01;27.10;99.90
18998;DHT22;9632;51.018;4.284;2022-09-03T11:54:30;27.10;99.90
18998;DHT22;9632;51.018;4.284;2022-09-03T11:57:09;27.20;99.90
18998;DHT22;9632;51.018;4.284;2022-09-03T11:59:36;27.20;99.90
18998;DHT22;9632;51.018;4.284;2022-09-03T12:04:51;27.10;99.90
18998;DHT22;9632;51.018;4.284;2022-09-03T12:08:03;27.30;99.90
18998;DHT22;9632;51.018;4.284;2022-09-03T12:13:25;27.60;99.90
18998;DHT22;9632;51.018;4.284;2022-09-03T12:16:25;27.80;99.90
18998;DHT22;9632;51.018;4.284;2022-09-03T12:18:54;28.00;99.90
18998;DHT22;9632;51.018;4.284;2022-09-03T12:21:22;28.10;99.90
18998;DHT22;9632;51.018;4.284;2022-09-03T12:23:52;28.20;99.90
18998;DHT22;9632;51.018;4.284;2022-09-03T12:26:23;28.30;99.90
18998;DHT22;9632;51.018;4.284;2022-09-03T12:29:00;28.40;99.90
18998;DHT22;9632;51.018;4.284;2022-09-03T12:31:29;28.40;99.90
18998;DHT22;9632;51.018;4.284;2022-09-03T12:36:24;28.50;99.90
18998;DHT22;9632;51.018;4.284;2022-09-03T12:38:51;28.50;99.90
18998;DHT22;9632;51.018;4.284;2022-09-03T12:41:28;28.60;99.90
18998;DHT22;9632;51.018;4.284;2022-09-03T12:43:59;28.50;99.90
18998;DHT22;9632;51.018;4.284;2022-09-03T12:46:33;28.60;99.90
18998;DHT22;9632;51.018;4.284;2022-09-03T12:49:01;28.50;99.90
18998;DHT22;9632;51.018;4.284;2022-09-03T12:51:37;28.50;99.90
18998;DHT22;9632;51.018;4.284;2022-09-03T12:54:05;28.40;99.90
18998;DHT22;9632;51.018;4.284;2022-09-03T12:56:34;28.40;99.90
18998;DHT22;9632;51.018;4.284;2022-09-03T12:59:14;28.50;99.90
18998;DHT22;9632;51.018;4.284;2022-09-03T13:01:57;28.60;99.90
18998;DHT22;9632;51.018;4.284;2022-09-03T13:04:28;28.80;99.90
18998;DHT22;9632;51.018;4.284;2022-09-03T13:07:07;28.80;99.90
18998;DHT22;9632;51.018;4.284;2022-09-03T13:09:37;28.80;99.90
18998;DHT22;9632;51.018;4.284;2022-09-03T13:12:04;28.80;99.90
18998;DHT22;9632;51.018;4.284;2022-09-03T13:14:45;28.70;99.90
18998;DHT22;9632;51.018;4.284;2022-09-03T13:31:36;28.40;99.90
18998;DHT22;9632;51.018;4.284;2022-09-03T13:34:12;28.30;99.90
18998;DHT22;9632;51.018;4.284;2022-09-03T13:36:55;28.30;99.90
18998;DHT22;9632;51.018;4.284;2022-09-03T13:39:53;28.30;99.90
18998;DHT22;9632;51.018;4.284;2022-09-03T13:45:15;28.40;99.90
18998;DHT22;9632;51.018;4.284;2022-09-03T13:48:06;28.40;99.90
18998;DHT22;9632;51.018;4.284;2022-09-03T14:07:47;28.70;99.90
18998;DHT22;9632;51.018;4.284;2022-09-03T14:13:58;28.80;99.40
18998;DHT22;9632;51.018;4.284;2022-09-03T14:21:50;28.70;99.90
18998;DHT22;9632;51.018;4.284;2022-09-03T14:24:33;28.60;99.70
18998;DHT22;9632;51.018;4.284;2022-09-03T14:27:04;28.70;99.90
18998;DHT22;9632;51.018;4.284;2022-09-03T14:29:35;28.80;99.40
18998;DHT22;9632;51.018;4.284;2022-09-03T14:32:22;28.80;99.20
18998;DHT22;9632;51.018;4.284;2022-09-03T14:38:05;28.50;99.50
18998;DHT22;9632;51.018;4.284;2022-09-03T15:00:56;28.20;99.40
18998;DHT22;9632;51.018;4.284;2022-09-03T15:20:00;28.20;99.90
18998;DHT22;9632;51.018;4.284;2022-09-03T15:25:34;28.20;99.90
18998;DHT22;9632;51.018;4.284;2022-09-03T15:31:04;28.20;99.90
18998;DHT22;9632;51.018;4.284;2022-09-03T15:36:45;28.10;99.90
18998;DHT22;9632;51.018;4.284;2022-09-03T15:39:26;28.10;99.90
18998;DHT22;9632;51.018;4.284;2022-09-03T15:41:57;28.10;99.90
18998;DHT22;9632;51.018;4.284;2022-09-03T15:44:25;28.10;99.90
18998;DHT22;9632;51.018;4.284;2022-09-03T15:55:14;27.90;99.90
18998;DHT22;9632;51.018;4.284;2022-09-03T16:03:11;27.90;99.90
18998;DHT22;9632;51.018;4.284;2022-09-03T16:06:06;27.90;99.90
18998;DHT22;9632;51.018;4.284;2022-09-03T16:08:45;28.00;99.90
18998;DHT22;9632;51.018;4.284;2022-09-03T16:11:27;28.10;99.90
18998;DHT22;9632;51.018;4.284;2022-09-03T16:14:24;28.20;99.90
18998;DHT22;9632;51.018;4.284;2022-09-03T16:17:24;28.00;99.50
18998;DHT22;9632;51.018;4.284;2022-09-03T16:22:33;28.00;99.50
18998;DHT22;9632;51.018;4.284;2022-09-03T16:25:09;28.00;99.60
18998;DHT22;9632;51.018;4.284;2022-09-03T16:27:51;28.00;99.70
18998;DHT22;9632;51.018;4.284;2022-09-03T16:41:51;27.70;99.90
18998;DHT22;9632;51.018;4.284;2022-09-03T16:52:26;27.70;99.90
18998;DHT22;9632;51.018;4.284;2022-09-03T17:00:22;27.70;99.90
18998;DHT22;9632;51.018;4.284;2022-09-03T17:19:52;27.40;99.90
18998;DHT22;9632;51.018;4.284;2022-09-03T17:26:04;27.40;99.90
18998;DHT22;9632;51.018;4.284;2022-09-03T17:28:42;27.30;99.90
18998;DHT22;9632;51.018;4.284;2022-09-03T17:31:26;27.20;99.90
18998;DHT22;9632;51.018;4.284;2022-09-03T17:39:55;27.00;99.90
18998;DHT22;9632;51.018;4.284;2022-09-03T17:45:13;26.80;99.90
18998;DHT22;9632;51.018;4.284;2022-09-03T17:56:29;26.60;99.90
18998;DHT22;9632;51.018;4.284;2022-09-03T17:59:03;26.50;99.90
18998;DHT22;9632;51.018;4.284;2022-09-03T18:01:35;26.50;99.90
18998;DHT22;9632;51.018;4.284;2022-09-03T18:06:59;26.30;99.90
18998;DHT22;9632;51.018;4.284;2022-09-03T18:09:39;26.30;99.90
18998;DHT22;9632;51.018;4.284;2022-09-03T18:12:42;26.20;99.90
18998;DHT22;9632;51.018;4.284;2022-09-03T18:15:35;26.20;99.90
18998;DHT22;9632;51.018;4.284;2022-09-03T18:18:18;26.10;99.90
18998;DHT22;9632;51.018;4.284;2022-09-03T18:20:52;26.00;99.90
18998;DHT22;9632;51.018;4.284;2022-09-03T18:27:02;25.90;99.90
18998;DHT22;9632;51.018;4.284;2022-09-03T18:30:09;25.90;99.90
18998;DHT22;9632;51.018;4.284;2022-09-03T18:32:55;25.90;99.90
18998;DHT22;9632;51.018;4.284;2022-09-03T18:35:43;25.70;99.90
18998;DHT22;9632;51.018;4.284;2022-09-03T18:38:31;25.60;99.90
18998;DHT22;9632;51.018;4.284;2022-09-03T18:56:58;25.60;99.90
18998;DHT22;9632;51.018;4.284;2022-09-03T19:03:47;25.50;99.90
18998;DHT22;9632;51.018;4.284;2022-09-03T19:07:02;25.50;99.90
18998;DHT22;9632;51.018;4.284;2022-09-03T19:10:02;25.50;99.90
18998;DHT22;9632;51.018;4.284;2022-09-03T19:13:12;25.50;99.90
18998;DHT22;9632;51.018;4.284;2022-09-03T19:22:38;25.40;99.90
18998;DHT22;9632;51.018;4.284;2022-09-03T19:25:25;25.40;99.90
18998;DHT22;9632;51.018;4.284;2022-09-03T19:28:28;25.40;99.90
18998;DHT22;9632;51.018;4.284;2022-09-03T19:37:40;25.30;99.90
18998;DHT22;9632;51.018;4.284;2022-09-03T19:43:37;25.20;99.90
18998;DHT22;9632;51.018;4.284;2022-09-03T19:50:10;25.20;99.90
18998;DHT22;9632;51.018;4.284;2022-09-03T19:53:00;25.20;99.90
18998;DHT22;9632;51.018;4.284;2022-09-03T19:56:01;25.20;99.90
18998;DHT22;9632;51.018;4.284;2022-09-03T19:58:53;25.20;99.90
18998;DHT22;9632;51.018;4.284;2022-09-03T20:01:38;25.20;99.90
18998;DHT22;9632;51.018;4.284;2022-09-03T20:04:35;25.10;99.90
18998;DHT22;9632;51.018;4.284;2022-09-03T20:07:20;25.20;99.90
18998;DHT22;9632;51.018;4.284;2022-09-03T20:10:09;25.10;99.90
18998;DHT22;9632;51.018;4.284;2022-09-03T20:15:49;25.00;99.90
18998;DHT22;9632;51.018;4.284;2022-09-03T20:21:32;25.00;99.90
18998;DHT22;9632;51.018;4.284;2022-09-03T20:32:17;24.80;99.90
18998;DHT22;9632;51.018;4.284;2022-09-03T20:37:36;24.80;99.90
18998;DHT22;9632;51.018;4.284;2022-09-03T20:43:02;24.70;99.90
18998;DHT22;9632;51.018;4.284;2022-09-03T20:48:31;24.50;99.90
18998;DHT22;9632;51.018;4.284;2022-09-03T20:51:09;24.40;99.90
18998;DHT22;9632;51.018;4.284;2022-09-03T20:56:29;24.40;99.90
18998;DHT22;9632;51.018;4.284;2022-09-03T21:01:34;24.30;99.90
18998;DHT22;9632;51.018;4.284;2022-09-03T21:19:21;23.90;99.90
18998;DHT22;9632;51.018;4.284;2022-09-03T21:27:24;23.80;99.90
18998;DHT22;9632;51.018;4.284;2022-09-03T21:32:27;23.70;99.90
18998;DHT22;9632;51.018;4.284;2022-09-03T21:35:02;23.70;99.90
18998;DHT22;9632;51.018;4.284;2022-09-03T21:37:32;23.70;99.90
18998;DHT22;9632;51.018;4.284;2022-09-03T21:39:58;23.60;99.90
18998;DHT22;9632;51.018;4.284;2022-09-03T21:42:43;23.60;99.90
18998;DHT22;9632;51.018;4.284;2022-09-03T21:48:07;23.50;99.90
18998;DHT22;9632;51.018;4.284;2022-09-03T21:50:59;23.40;99.90
18998;DHT22;9632;51.018;4.284;2022-09-03T21:53:56;23.30;99.90
18998;DHT22;9632;51.018;4.284;2022-09-03T21:59:22;23.30;99.90
18998;DHT22;9632;51.018;4.284;2022-09-03T22:04:49;23.10;99.90
18998;DHT22;9632;51.018;4.284;2022-09-03T22:09:51;23.10;99.90
18998;DHT22;9632;51.018;4.284;2022-09-03T22:12:43;23.00;99.90
18998;DHT22;9632;51.018;4.284;2022-09-03T22:15:14;23.00;99.90
18998;DHT22;9632;51.018;4.284;2022-09-03T22:17:58;23.00;99.90
18998;DHT22;9632;51.018;4.284;2022-09-03T22:20:25;22.90;99.90
18998;DHT22;9632;51.018;4.284;2022-09-03T22:23:03;22.90;99.90
18998;DHT22;9632;51.018;4.284;2022-09-03T22:25:46;22.90;99.90
18998;DHT22;9632;51.018;4.284;2022-09-03T22:28:24;22.80;99.90
18998;DHT22;9632;51.018;4.284;2022-09-03T22:31:10;22.70;99.90
18998;DHT22;9632;51.018;4.284;2022-09-03T22:37:00;22.60;99.90
18998;DHT22;9632;51.018;4.284;2022-09-03T22:39:39;22.60;99.90
18998;DHT22;9632;51.018;4.284;2022-09-03T22:42:28;22.50;99.90
18998;DHT22;9632;51.018;4.284;2022-09-03T22:46:04;22.50;99.90
18998;DHT22;9632;51.018;4.284;2022-09-03T22:48:39;22.40;99.90
18998;DHT22;9632;51.018;4.284;2022-09-03T22:51:52;22.40;99.90
18998;DHT22;9632;51.018;4.284;2022-09-03T22:57:13;22.30;99.90
18998;DHT22;9632;51.018;4.284;2022-09-03T22:59:43;22.30;99.90
18998;DHT22;9632;51.018;4.284;2022-09-03T23:02:20;22.30;99.90
18998;DHT22;9632;51.018;4.284;2022-09-03T23:07:53;22.20;99.90